Time;durP1;ratioP1;P1;durP2;ratioP2;P2;SDS_P1;SDS_P2;PMS_P1;PMS_P2;Temp;Humidity;BMP_temperature;BMP_pressure;BME280_temperature;BME280_humidity;BME280_pressure;Samples;Min_cycle;Max_cycle;Signal;HPM_P1;HPM_P2
2023/04/10 00:00:38;;;;;;;12.00;5.88;;;;;;;;;;4998980;28;20022;-74
2023/04/10 00:03:04;;;;;;;11.60;5.78;;;;;;;;;;5003989;28;20033;-73
2023/04/10 00:05:30;;;;;;;9.98;5.15;;;;;;;;;;5003788;28;20476;-73
2023/04/10 00:07:56;;;;;;;10.55;5.63;;;;;;;;;;5004592;28;20026;-73
2023/04/10 00:10:25;;;;;;;8.00;4.30;;;;;;;;;;5004366;28;20038;-74
2023/04/10 00:12:52;;;;;;;12.18;5.55;;;;;;;;;;5008869;28;20618;-74
2023/04/10 00:15:18;;;;;;;10.63;5.90;;;;;;;;;;5006939;28;20042;-73
2023/04/10 00:17:44;;;;;;;13.52;5.28;;;;;;;;;;5010191;28;20032;-74
2023/04/10 00:20:11;;;;;;;10.20;5.45;;;;;;;;;;4999781;28;20142;-73
2023/04/10 00:22:37;;;;;;;14.30;5.03;;;;;;;;;;5006198;28;20121;-74
2023/04/10 00:25:05;;;;;;;8.75;5.00;;;;;;;;;;5007384;28;20038;-73
2023/04/10 00:27:31;;;;;;;8.40;5.45;;;;;;;;;;4997970;28;20014;-74
2023/04/10 00:29:57;;;;;;;10.02;5.53;;;;;;;;;;5009304;28;20026;-73
2023/04/10 00:32:23;;;;;;;11.30;5.47;;;;;;;;;;5000953;28;20492;-74
2023/04/10 00:34:49;;;;;;;12.30;5.72;;;;;;;;;;5008824;28;20083;-73
2023/04/10 00:37:15;;;;;;;10.63;6.20;;;;;;;;;;5010397;28;20041;-74
2023/04/10 00:39:41;;;;;;;11.05;6.10;;;;;;;;;;5009496;28;20033;-74
2023/04/10 00:42:08;;;;;;;13.85;5.45;;;;;;;;;;4998427;28;20022;-73
2023/04/10 00:44:36;;;;;;;9.57;5.38;;;;;;;;;;5006870;28;20025;-74
2023/04/10 00:47:03;;;;;;;9.32;5.47;;;;;;;;;;5006538;28;20045;-73
2023/04/10 00:49:30;;;;;;;8.68;4.88;;;;;;;;;;4997626;28;20034;-73
2023/04/10 00:51:56;;;;;;;11.40;5.32;;;;;;;;;;5006384;28;20038;-74
2023/04/10 00:54:23;;;;;;;9.13;5.38;;;;;;;;;;5001783;28;20190;-73
2023/04/10 00:56:49;;;;;;;12.95;5.53;;;;;;;;;;5004003;28;20188;-74
2023/04/10 00:59:15;;;;;;;8.35;5.20;;;;;;;;;;4991025;28;20497;-73
2023/04/10 01:01:41;;;;;;;9.02;5.43;;;;;;;;;;5000920;28;20064;-76
2023/04/10 01:04:08;;;;;;;10.50;5.55;;;;;;;;;;5006031;28;20058;-74
2023/04/10 01:06:57;;;;;;;11.25;5.90;;;;;;;;;;5005923;28;20026;-74
2023/04/10 01:09:33;;;;;;;9.48;4.97;;;;;;;;;;5006272;28;20037;-73
2023/04/10 01:12:02;;;;;;;8.25;4.40;;;;;;;;;;5010030;28;20113;-74
2023/04/10 01:14:42;;;;;;;7.95;4.63;;;;;;;;;;5006559;28;20125;-74
2023/04/10 01:17:12;;;;;;;9.43;4.65;;;;;;;;;;5002787;28;20083;-73
2023/04/10 01:19:59;;;;;;;8.10;4.82;;;;;;;;;;5009080;28;20036;-73
2023/04/10 01:22:28;;;;;;;9.98;5.32;;;;;;;;;;5009012;28;20552;-74
2023/04/10 01:25:02;;;;;;;11.60;5.00;;;;;;;;;;5009425;28;20038;-74
2023/04/10 01:27:46;;;;;;;10.25;5.30;;;;;;;;;;5005806;28;20516;-75
2023/04/10 01:30:16;;;;;;;11.15;5.07;;;;;;;;;;4990131;28;20026;-73
2023/04/10 01:32:43;;;;;;;7.57;4.80;;;;;;;;;;4999267;28;20026;-73
2023/04/10 01:35:10;;;;;;;7.68;4.45;;;;;;;;;;4997044;28;20497;-74
2023/04/10 01:37:38;;;;;;;7.85;4.35;;;;;;;;;;5001384;28;20042;-73
2023/04/10 01:40:05;;;;;;;9.10;5.10;;;;;;;;;;4990316;28;20034;-74
2023/04/10 01:42:33;;;;;;;7.28;4.80;;;;;;;;;;5004070;28;20049;-73
2023/04/10 01:45:00;;;;;;;11.93;5.60;;;;;;;;;;5004801;28;20046;-74
2023/04/10 01:47:27;;;;;;;9.43;5.28;;;;;;;;;;4997201;28;20038;-73
2023/04/10 01:49:54;;;;;;;7.38;4.88;;;;;;;;;;5003624;28;20045;-74
2023/04/10 01:52:21;;;;;;;7.78;4.47;;;;;;;;;;4999927;28;20375;-73
2023/04/10 01:54:50;;;;;;;8.10;4.05;;;;;;;;;;5007976;28;20030;-73
2023/04/10 01:57:16;;;;;;;9.77;4.88;;;;;;;;;;5004987;28;20040;-73
2023/04/10 01:59:43;;;;;;;8.50;5.03;;;;;;;;;;5004869;28;20038;-73
2023/04/10 02:02:10;;;;;;;8.13;4.47;;;;;;;;;;5007135;28;20029;-74
2023/04/10 02:04:36;;;;;;;8.10;4.78;;;;;;;;;;4998271;28;20041;-73
2023/04/10 02:07:04;;;;;;;7.38;4.65;;;;;;;;;;5001019;28;20033;-73
2023/04/10 02:09:49;;;;;;;7.90;4.63;;;;;;;;;;4995170;28;20088;-74
2023/04/10 02:12:16;;;;;;;7.55;4.32;;;;;;;;;;5004957;28;20029;-73
2023/04/10 02:14:45;;;;;;;7.88;4.70;;;;;;;;;;5007396;28;20239;-73
2023/04/10 02:17:13;;;;;;;7.22;4.78;;;;;;;;;;5002540;28;20046;-74
2023/04/10 02:19:39;;;;;;;8.73;4.60;;;;;;;;;;5001757;28;20038;-74
2023/04/10 02:22:07;;;;;;;17.65;5.28;;;;;;;;;;5003944;28;20048;-73
2023/04/10 02:24:34;;;;;;;8.20;4.88;;;;;;;;;;5008142;28;20481;-74
2023/04/10 02:27:00;;;;;;;6.88;4.10;;;;;;;;;;5002278;28;20096;-73
2023/04/10 02:29:26;;;;;;;7.65;4.65;;;;;;;;;;5001980;28;20488;-74
2023/04/10 02:31:52;;;;;;;6.45;3.78;;;;;;;;;;4994664;28;20034;-74
2023/04/10 02:34:18;;;;;;;8.45;5.00;;;;;;;;;;5007702;28;20034;-73
2023/04/10 02:36:44;;;;;;;8.68;4.50;;;;;;;;;;5001675;28;20378;-73
2023/04/10 02:39:10;;;;;;;12.27;4.93;;;;;;;;;;5000743;28;20375;-73
2023/04/10 02:41:36;;;;;;;12.52;4.85;;;;;;;;;;5001714;28;20041;-73
2023/04/10 02:44:02;;;;;;;5.82;3.47;;;;;;;;;;5007029;28;20038;-74
2023/04/10 02:46:28;;;;;;;6.47;4.07;;;;;;;;;;4998176;28;20061;-73
2023/04/10 02:48:54;;;;;;;10.48;4.72;;;;;;;;;;5003512;28;20512;-73
2023/04/10 02:51:21;;;;;;;8.40;4.35;;;;;;;;;;5006490;28;20169;-73
2023/04/10 02:53:47;;;;;;;8.55;5.05;;;;;;;;;;5007437;28;20033;-73
2023/04/10 02:56:13;;;;;;;8.20;4.30;;;;;;;;;;5006245;28;20032;-73
2023/04/10 02:58:39;;;;;;;10.02;5.10;;;;;;;;;;5002618;28;20033;-73
2023/04/10 03:01:06;;;;;;;7.85;4.40;;;;;;;;;;5006565;28;20029;-73
2023/04/10 03:03:32;;;;;;;7.15;3.92;;;;;;;;;;5000225;28;20042;-73
2023/04/10 03:05:58;;;;;;;9.50;4.45;;;;;;;;;;5008175;28;20470;-73
2023/04/10 03:08:24;;;;;;;7.72;4.45;;;;;;;;;;4998223;28;20026;-74
2023/04/10 03:10:50;;;;;;;9.25;4.35;;;;;;;;;;5002230;28;20433;-74
2023/04/10 03:13:16;;;;;;;10.07;5.00;;;;;;;;;;5006615;28;20481;-74
2023/04/10 03:15:42;;;;;;;10.20;4.35;;;;;;;;;;4995771;28;20061;-73
2023/04/10 03:18:08;;;;;;;6.13;3.88;;;;;;;;;;5001014;28;20077;-73
2023/04/10 03:20:37;;;;;;;9.73;4.47;;;;;;;;;;5004019;28;20496;-73
2023/04/10 03:23:04;;;;;;;9.00;4.13;;;;;;;;;;5002622;28;20041;-73
2023/04/10 03:25:31;;;;;;;7.32;4.35;;;;;;;;;;5002041;28;20037;-73
2023/04/10 03:27:56;;;;;;;7.57;4.45;;;;;;;;;;5003212;28;20049;-73
2023/04/10 03:30:22;;;;;;;9.27;4.47;;;;;;;;;;5006644;28;20031;-73
2023/04/10 03:32:48;;;;;;;8.52;5.22;;;;;;;;;;5000640;28;20088;-74
2023/04/10 03:35:14;;;;;;;8.05;4.60;;;;;;;;;;4993853;28;20112;-74
2023/04/10 03:37:41;;;;;;;10.07;4.05;;;;;;;;;;5007827;28;20022;-74
2023/04/10 03:40:07;;;;;;;5.88;3.97;;;;;;;;;;4997515;28;20076;-74
2023/04/10 03:42:33;;;;;;;6.63;4.07;;;;;;;;;;5002926;28;20129;-74
2023/04/10 03:45:03;;;;;;;7.18;4.10;;;;;;;;;;5009984;28;20473;-74
2023/04/10 03:47:29;;;;;;;7.93;4.55;;;;;;;;;;5014498;28;20018;-73
2023/04/10 03:49:55;;;;;;;7.03;4.38;;;;;;;;;;5031230;28;20075;-73
2023/04/10 03:52:21;;;;;;;6.68;4.00;;;;;;;;;;5023041;28;20473;-73
2023/04/10 03:54:47;;;;;;;8.70;4.22;;;;;;;;;;5019818;28;20498;-73
2023/04/10 03:57:13;;;;;;;8.30;4.30;;;;;;;;;;5027505;28;20060;-73
2023/04/10 03:59:39;;;;;;;7.85;4.18;;;;;;;;;;5020812;28;20021;-73
2023/04/10 04:02:06;;;;;;;6.00;3.83;;;;;;;;;;5019442;28;20388;-73
2023/04/10 04:04:32;;;;;;;8.55;3.75;;;;;;;;;;5026413;28;20041;-73
2023/04/10 04:06:58;;;;;;;9.25;4.47;;;;;;;;;;5016307;28;20022;-74
2023/04/10 04:09:24;;;;;;;9.93;4.53;;;;;;;;;;5020870;28;20388;-74
2023/04/10 04:11:50;;;;;;;7.07;3.75;;;;;;;;;;5007313;28;20381;-73
2023/04/10 04:14:16;;;;;;;7.10;3.95;;;;;;;;;;5017134;28;20037;-73
2023/04/10 04:16:42;;;;;;;6.55;3.65;;;;;;;;;;5019251;28;20037;-73
2023/04/10 04:19:08;;;;;;;6.10;3.50;;;;;;;;;;5027054;28;20029;-74
2023/04/10 04:21:34;;;;;;;9.55;4.50;;;;;;;;;;5026504;28;20099;-74
2023/04/10 04:24:00;;;;;;;7.65;3.88;;;;;;;;;;5019858;28;20025;-73
2023/04/10 04:26:26;;;;;;;7.10;4.05;;;;;;;;;;5010014;28;20030;-74
2023/04/10 04:28:52;;;;;;;6.57;3.53;;;;;;;;;;5023182;28;20053;-73
2023/04/10 04:31:18;;;;;;;8.13;4.22;;;;;;;;;;5010945;28;20084;-74
2023/04/10 04:33:44;;;;;;;5.28;3.55;;;;;;;;;;5015449;28;20029;-73
2023/04/10 04:36:10;;;;;;;7.50;4.05;;;;;;;;;;5028127;28;20636;-73
2023/04/10 04:38:36;;;;;;;7.53;3.65;;;;;;;;;;5028974;28;20480;-73
2023/04/10 04:41:02;;;;;;;6.38;3.92;;;;;;;;;;5024954;28;20480;-73
2023/04/10 04:43:28;;;;;;;7.97;4.25;;;;;;;;;;5014600;28;20679;-73
2023/04/10 04:45:54;;;;;;;7.53;3.78;;;;;;;;;;5002240;28;20515;-73
2023/04/10 04:48:20;;;;;;;8.35;4.38;;;;;;;;;;4994224;28;20492;-74
2023/04/10 04:50:46;;;;;;;8.32;4.20;;;;;;;;;;4999570;28;20501;-74
2023/04/10 04:53:12;;;;;;;9.13;4.35;;;;;;;;;;4990474;28;20022;-74
2023/04/10 04:55:38;;;;;;;7.07;3.38;;;;;;;;;;5002262;28;20729;-73
2023/04/10 04:58:04;;;;;;;7.07;3.47;;;;;;;;;;5003508;28;20378;-73
2023/04/10 05:00:30;;;;;;;6.45;3.50;;;;;;;;;;4993098;28;20034;-73
2023/04/10 05:02:56;;;;;;;6.47;3.47;;;;;;;;;;5005142;28;20408;-73
2023/04/10 05:05:22;;;;;;;10.27;4.38;;;;;;;;;;5009202;28;20034;-73
2023/04/10 05:07:48;;;;;;;5.43;3.35;;;;;;;;;;5007238;28;20037;-74
2023/04/10 05:10:14;;;;;;;5.00;3.47;;;;;;;;;;5006731;28;20026;-73
2023/04/10 05:12:41;;;;;;;6.88;3.10;;;;;;;;;;4997115;28;20026;-74
2023/04/10 05:15:08;;;;;;;7.05;3.88;;;;;;;;;;4994194;28;20029;-74
2023/04/10 05:17:34;;;;;;;7.07;4.13;;;;;;;;;;5000551;28;20125;-74
2023/04/10 05:20:00;;;;;;;4.85;3.22;;;;;;;;;;4992359;28;21102;-74
2023/04/10 05:22:27;;;;;;;7.68;3.80;;;;;;;;;;5003916;28;20034;-73
2023/04/10 05:24:54;;;;;;;6.00;3.65;;;;;;;;;;5003321;28;20500;-74
2023/04/10 05:27:20;;;;;;;6.75;3.58;;;;;;;;;;5005439;28;20165;-74
2023/04/10 05:29:46;;;;;;;9.02;4.38;;;;;;;;;;5002002;28;20029;-73
2023/04/10 05:32:12;;;;;;;6.20;3.60;;;;;;;;;;5006514;28;20034;-74
2023/04/10 05:34:38;;;;;;;6.68;3.65;;;;;;;;;;5001467;28;20738;-73
2023/04/10 05:37:04;;;;;;;7.25;3.65;;;;;;;;;;5006753;28;20033;-74
2023/04/10 05:39:30;;;;;;;7.30;4.28;;;;;;;;;;5007812;28;20805;-74
2023/04/10 05:41:57;;;;;;;5.88;3.58;;;;;;;;;;5006986;28;20060;-74
2023/04/10 05:44:23;;;;;;;5.85;3.42;;;;;;;;;;5019551;28;20440;-74
2023/04/10 05:46:49;;;;;;;6.45;3.55;;;;;;;;;;5021442;28;20018;-74
2023/04/10 05:49:15;;;;;;;5.38;3.13;;;;;;;;;;5021531;28;20030;-74
2023/04/10 05:51:41;;;;;;;8.13;3.72;;;;;;;;;;5018297;28;20161;-74
2023/04/10 05:54:07;;;;;;;8.02;4.18;;;;;;;;;;5007211;28;20125;-73
2023/04/10 05:56:33;;;;;;;5.00;3.22;;;;;;;;;;5022234;28;20057;-73
2023/04/10 05:58:59;;;;;;;5.38;3.45;;;;;;;;;;5024654;28;20095;-74
2023/04/10 06:01:25;;;;;;;5.88;3.53;;;;;;;;;;5027114;28;20661;-74
2023/04/10 06:03:51;;;;;;;5.07;3.80;;;;;;;;;;5028716;28;20022;-73
2023/04/10 06:06:23;;;;;;;7.70;3.60;;;;;;;;;;5025556;28;20026;-74
2023/04/10 06:08:49;;;;;;;7.65;3.00;;;;;;;;;;5017621;28;20040;-88
2023/04/10 06:11:14;;;;;;;6.18;3.35;;;;;;;;;;5026133;28;20411;-80
2023/04/10 06:13:40;;;;;;;5.78;3.03;;;;;;;;;;5013208;28;20028;-80
2023/04/10 06:16:07;;;;;;;6.70;3.55;;;;;;;;;;5020920;28;20030;-85
2023/04/10 06:18:33;;;;;;;6.43;3.53;;;;;;;;;;5008427;28;20551;-79
2023/04/10 06:21:00;;;;;;;6.45;3.22;;;;;;;;;;5018744;28;20041;-88
2023/04/10 06:23:27;;;;;;;5.35;2.88;;;;;;;;;;5017616;28;20503;-75
2023/04/10 06:26:02;;;;;;;5.88;2.97;;;;;;;;;;5022871;28;20034;-81
2023/04/10 06:28:29;;;;;;;8.13;4.05;;;;;;;;;;5026556;28;20040;-82
2023/04/10 06:30:55;;;;;;;4.53;3.13;;;;;;;;;;5025637;28;20017;-81
2023/04/10 06:33:21;;;;;;;6.43;3.30;;;;;;;;;;5024402;28;20227;-81
2023/04/10 06:35:47;;;;;;;9.07;3.30;;;;;;;;;;5022295;28;20038;-80
2023/04/10 06:38:13;;;;;;;6.13;3.17;;;;;;;;;;5020949;28;20037;-81
2023/04/10 06:40:40;;;;;;;3.90;2.92;;;;;;;;;;5019604;28;20471;-80
2023/04/10 06:43:06;;;;;;;5.28;3.22;;;;;;;;;;5017125;28;20129;-81
2023/04/10 06:45:32;;;;;;;4.78;3.10;;;;;;;;;;5005677;28;20374;-76
2023/04/10 06:47:58;;;;;;;4.97;3.10;;;;;;;;;;5007120;28;20022;-77
2023/04/10 06:50:24;;;;;;;4.53;2.75;;;;;;;;;;5002741;28;20027;-76
2023/04/10 06:52:52;;;;;;;4.30;2.40;;;;;;;;;;5004490;28;20723;-76
2023/04/10 06:55:17;;;;;;;10.20;2.80;;;;;;;;;;5000964;28;20052;-76
2023/04/10 06:57:44;;;;;;;6.45;3.55;;;;;;;;;;5005397;28;20060;-76
2023/04/10 07:00:11;;;;;;;3.75;2.40;;;;;;;;;;5004500;28;20105;-76
2023/04/10 07:02:36;;;;;;;3.72;2.80;;;;;;;;;;4999851;28;20440;-76
2023/04/10 07:05:02;;;;;;;4.68;2.60;;;;;;;;;;5005954;28;20405;-75
2023/04/10 07:07:28;;;;;;;4.30;2.35;;;;;;;;;;5006271;28;20117;-75
2023/04/10 07:09:56;;;;;;;5.45;3.17;;;;;;;;;;4998008;28;20026;-75
2023/04/10 07:12:22;;;;;;;3.92;2.90;;;;;;;;;;5003151;28;20034;-75
2023/04/10 07:14:48;;;;;;;5.20;2.95;;;;;;;;;;4998475;28;20030;-75
2023/04/10 07:17:14;;;;;;;4.88;2.85;;;;;;;;;;5000692;28;20030;-77
2023/04/10 07:19:40;;;;;;;3.28;2.35;;;;;;;;;;4999136;28;20026;-82
2023/04/10 07:22:06;;;;;;;5.25;3.03;;;;;;;;;;5002084;28;20037;-86
2023/04/10 07:24:32;;;;;;;5.32;2.88;;;;;;;;;;5006102;28;20456;-82
2023/04/10 07:27:00;;;;;;;3.58;2.10;;;;;;;;;;5003471;28;20026;-80
2023/04/10 07:29:26;;;;;;;6.55;2.88;;;;;;;;;;5006774;28;20060;-80
2023/04/10 07:31:52;;;;;;;6.03;2.50;;;;;;;;;;5006702;28;20026;-80
2023/04/10 07:34:18;;;;;;;4.88;2.53;;;;;;;;;;5001581;28;20029;-79
2023/04/10 07:36:44;;;;;;;5.45;2.90;;;;;;;;;;5002590;28;20040;-78
2023/04/10 07:39:10;;;;;;;5.78;2.85;;;;;;;;;;5006834;28;20200;-78
2023/04/10 07:41:36;;;;;;;6.70;2.67;;;;;;;;;;5006867;28;20045;-80
2023/04/10 07:44:02;;;;;;;8.00;3.17;;;;;;;;;;5006620;28;20046;-79
2023/04/10 07:46:28;;;;;;;3.92;2.20;;;;;;;;;;5006993;28;20018;-79
2023/04/10 07:48:54;;;;;;;9.43;3.42;;;;;;;;;;5005022;28;20034;-80
2023/04/10 07:51:20;;;;;;;6.35;2.88;;;;;;;;;;5000723;28;20037;-80
2023/04/10 07:53:46;;;;;;;7.43;2.88;;;;;;;;;;5002039;28;20030;-79
2023/04/10 07:56:22;;;;;;;8.23;3.10;;;;;;;;;;5005392;28;20863;-80
2023/04/10 07:58:48;;;;;;;5.63;2.95;;;;;;;;;;4997767;28;20022;-80
2023/04/10 08:01:14;;;;;;;7.85;3.25;;;;;;;;;;5005830;28;20026;-79
2023/04/10 08:03:41;;;;;;;4.45;2.70;;;;;;;;;;5007441;28;20088;-74
2023/04/10 08:06:10;;;;;;;7.75;3.25;;;;;;;;;;5005165;28;20028;-74
2023/04/10 08:08:37;;;;;;;5.25;3.25;;;;;;;;;;5004487;28;20493;-74
2023/04/10 08:11:04;;;;;;;6.68;3.90;;;;;;;;;;5006779;28;20378;-74
2023/04/10 08:13:30;;;;;;;4.95;2.88;;;;;;;;;;5005196;28;20028;-73
2023/04/10 08:15:56;;;;;;;7.05;3.00;;;;;;;;;;5004020;28;20399;-73
2023/04/10 08:18:22;;;;;;;5.57;3.72;;;;;;;;;;5006786;28;20030;-74
2023/04/10 08:20:48;;;;;;;6.90;3.30;;;;;;;;;;5006880;28;20472;-76
2023/04/10 08:23:14;;;;;;;6.50;2.90;;;;;;;;;;5007993;28;20038;-74
2023/04/10 08:25:40;;;;;;;8.55;3.45;;;;;;;;;;5006741;28;20018;-73
2023/04/10 08:28:06;;;;;;;7.30;3.65;;;;;;;;;;5005502;28;20048;-73
2023/04/10 08:30:31;;;;;;;4.68;3.03;;;;;;;;;;4999681;28;20030;-72
2023/04/10 08:32:57;;;;;;;4.60;2.85;;;;;;;;;;5005085;28;20041;-74
2023/04/10 08:35:23;;;;;;;8.10;4.03;;;;;;;;;;5006568;28;20041;-73
2023/04/10 08:37:49;;;;;;;11.45;4.40;;;;;;;;;;4996541;28;20241;-73
2023/04/10 08:40:15;;;;;;;5.82;3.22;;;;;;;;;;5007075;28;20026;-72
2023/04/10 08:42:49;;;;;;;6.00;3.55;;;;;;;;;;5003652;28;20054;-72
2023/04/10 08:45:15;;;;;;;6.00;3.80;;;;;;;;;;4998316;28;20126;-76
2023/04/10 08:47:43;;;;;;;6.60;3.15;;;;;;;;;;5004237;28;20038;-74
2023/04/10 08:50:10;;;;;;;6.18;3.10;;;;;;;;;;5003217;28;20146;-71
2023/04/10 08:52:37;;;;;;;7.85;3.85;;;;;;;;;;5004674;28;20025;-73
2023/04/10 08:55:06;;;;;;;5.82;3.10;;;;;;;;;;4999800;28;20029;-72
2023/04/10 08:57:32;;;;;;;5.05;2.55;;;;;;;;;;5008415;28;20030;-74
2023/04/10 08:59:58;;;;;;;10.32;3.92;;;;;;;;;;4989837;28;20098;-72
2023/04/10 09:02:24;;;;;;;7.10;3.47;;;;;;;;;;5008044;28;20440;-73
2023/04/10 09:04:53;;;;;;;3.90;2.90;;;;;;;;;;5006711;28;20025;-74
2023/04/10 09:07:20;;;;;;;4.95;3.15;;;;;;;;;;5007165;28;20117;-74
2023/04/10 09:09:46;;;;;;;7.00;3.95;;;;;;;;;;5003151;28;20045;-74
2023/04/10 09:12:13;;;;;;;11.57;4.15;;;;;;;;;;5004641;28;20111;-74
2023/04/10 09:14:40;;;;;;;6.88;3.63;;;;;;;;;;5005441;28;20492;-74
2023/04/10 09:17:15;;;;;;;5.82;3.55;;;;;;;;;;5004634;28;20068;-75
2023/04/10 09:19:42;;;;;;;7.00;3.88;;;;;;;;;;5006312;28;20033;-74
2023/04/10 09:22:08;;;;;;;7.72;3.72;;;;;;;;;;5008085;28;20026;-75
2023/04/10 09:24:41;;;;;;;7.20;4.28;;;;;;;;;;4993682;28;20030;-74
2023/04/10 09:27:08;;;;;;;8.80;4.05;;;;;;;;;;4992186;28;20030;-75
2023/04/10 09:29:40;;;;;;;5.63;3.22;;;;;;;;;;5001656;28;20028;-75
2023/04/10 09:32:06;;;;;;;7.22;3.55;;;;;;;;;;5005554;28;20022;-75
2023/04/10 09:34:32;;;;;;;7.13;2.85;;;;;;;;;;5007473;28;20030;-80
2023/04/10 09:37:00;;;;;;;5.93;3.30;;;;;;;;;;5005521;28;20045;-80
2023/04/10 09:39:42;;;;;;;5.45;3.00;;;;;;;;;;5006554;28;20029;-80
2023/04/10 09:42:08;;;;;;;4.78;3.10;;;;;;;;;;5003243;28;20034;-79
2023/04/10 09:44:38;;;;;;;5.65;3.40;;;;;;;;;;5006367;28;20029;-80
2023/04/10 09:47:13;;;;;;;6.13;3.15;;;;;;;;;;4996292;28;20030;-80
2023/04/10 09:49:51;;;;;;;7.90;4.03;;;;;;;;;;5004957;28;20495;-80
2023/04/10 09:52:27;;;;;;;6.13;3.47;;;;;;;;;;5007739;28;20440;-80
2023/04/10 09:54:53;;;;;;;10.23;3.92;;;;;;;;;;5002186;28;20030;-81
2023/04/10 09:57:20;;;;;;;11.98;4.60;;;;;;;;;;4986457;28;20029;-81
2023/04/10 09:59:48;;;;;;;6.28;3.47;;;;;;;;;;5003575;28;20107;-81
2023/04/10 10:02:14;;;;;;;8.52;4.00;;;;;;;;;;4997815;28;20101;-81
2023/04/10 10:04:42;;;;;;;8.75;3.65;;;;;;;;;;5003064;28;20057;-80
2023/04/10 10:07:08;;;;;;;10.05;3.58;;;;;;;;;;5006270;28;20095;-80
2023/04/10 10:09:35;;;;;;;6.07;3.55;;;;;;;;;;5001817;28;20113;-81
2023/04/10 10:12:03;;;;;;;9.90;4.40;;;;;;;;;;5004747;28;20036;-81
2023/04/10 10:14:30;;;;;;;5.53;2.97;;;;;;;;;;5005697;28;20645;-80
2023/04/10 10:16:57;;;;;;;7.63;3.65;;;;;;;;;;4999903;28;20046;-80
2023/04/10 10:19:24;;;;;;;5.15;2.70;;;;;;;;;;5000866;28;20038;-81
2023/04/10 10:21:51;;;;;;;6.22;2.72;;;;;;;;;;5000328;28;20452;-80
2023/04/10 10:24:19;;;;;;;5.45;3.33;;;;;;;;;;5001064;28;20037;-81
2023/04/10 10:26:46;;;;;;;4.68;2.97;;;;;;;;;;4999955;28;20369;-81
2023/04/10 10:29:16;;;;;;;6.80;3.28;;;;;;;;;;5005938;28;20028;-81
2023/04/10 10:31:42;;;;;;;5.15;3.22;;;;;;;;;;5003349;28;20022;-81
2023/04/10 10:34:08;;;;;;;4.78;2.78;;;;;;;;;;5000347;28;20490;-80
2023/04/10 10:36:35;;;;;;;4.95;3.05;;;;;;;;;;5001134;28;20621;-80
2023/04/10 10:39:03;;;;;;;7.88;3.03;;;;;;;;;;5001284;28;20066;-80
2023/04/10 10:41:37;;;;;;;8.38;2.75;;;;;;;;;;4999943;28;20113;-81
2023/04/10 10:44:20;;;;;;;5.93;2.75;;;;;;;;;;5018161;28;20045;-81
2023/04/10 10:46:51;;;;;;;6.38;2.67;;;;;;;;;;5015712;28;20093;-80
2023/04/10 10:49:18;;;;;;;5.35;2.88;;;;;;;;;;5007919;28;20049;-81
2023/04/10 10:51:45;;;;;;;5.40;2.80;;;;;;;;;;5022509;28;20037;-81
2023/04/10 10:54:28;;;;;;;5.63;2.78;;;;;;;;;;5017838;28;20400;-81
2023/04/10 10:56:54;;;;;;;7.65;2.47;;;;;;;;;;5020017;28;20037;-81
2023/04/10 10:59:40;;;;;;;6.43;3.28;;;;;;;;;;5022835;28;20025;-83
2023/04/10 11:02:14;;;;;;;4.70;3.30;;;;;;;;;;5010832;28;20061;-81
2023/04/10 11:04:44;;;;;;;5.32;2.67;;;;;;;;;;5022863;28;20060;-81
2023/04/10 11:07:10;;;;;;;6.60;2.88;;;;;;;;;;5018238;28;20036;-83
2023/04/10 11:09:47;;;;;;;7.13;3.47;;;;;;;;;;5022763;28;20053;-84
2023/04/10 11:12:13;;;;;;;8.02;2.83;;;;;;;;;;5024740;28;20049;-84
2023/04/10 11:14:41;;;;;;;6.60;3.40;;;;;;;;;;5025543;28;20092;-84
2023/04/10 11:17:07;;;;;;;3.55;2.63;;;;;;;;;;5022570;28;20043;-84
2023/04/10 11:19:52;;;;;;;6.05;2.92;;;;;;;;;;5019459;28;20087;-84
2023/04/10 11:22:19;;;;;;;5.30;2.97;;;;;;;;;;5020965;28;20040;-84
2023/04/10 11:24:56;;;;;;;4.25;3.03;;;;;;;;;;5027639;28;20025;-84
2023/04/10 11:27:39;;;;;;;5.75;3.20;;;;;;;;;;5024477;28;20032;-85
2023/04/10 11:30:24;;;;;;;5.68;3.45;;;;;;;;;;5019807;28;20037;-85
2023/04/10 11:32:50;;;;;;;4.35;2.83;;;;;;;;;;5022275;28;20109;-85
2023/04/10 11:35:20;;;;;;;7.22;3.25;;;;;;;;;;5018310;28;20040;-86
2023/04/10 11:37:46;;;;;;;5.20;3.13;;;;;;;;;;5022800;28;20025;-86
2023/04/10 11:40:12;;;;;;;6.22;3.40;;;;;;;;;;5022724;28;20045;-85
2023/04/10 11:42:38;;;;;;;6.00;3.10;;;;;;;;;;5004759;28;20041;-86
2023/04/10 11:45:25;;;;;;;4.38;2.75;;;;;;;;;;5021658;28;20029;-86
2023/04/10 11:47:54;;;;;;;4.95;2.78;;;;;;;;;;5008036;28;20056;-85
2023/04/10 11:50:20;;;;;;;5.90;2.72;;;;;;;;;;5025710;28;20034;-85
2023/04/10 11:52:48;;;;;;;6.60;3.28;;;;;;;;;;5019928;28;20018;-85
2023/04/10 11:55:15;;;;;;;4.75;2.92;;;;;;;;;;5023834;28;20048;-76
2023/04/10 11:57:41;;;;;;;3.75;2.30;;;;;;;;;;5025935;28;20052;-85
2023/04/10 12:00:08;;;;;;;2.75;2.22;;;;;;;;;;5021722;28;20033;-85
2023/04/10 12:02:37;;;;;;;5.72;2.83;;;;;;;;;;5017150;28;20112;-84
2023/04/10 12:05:03;;;;;;;3.10;2.58;;;;;;;;;;5025700;28;20112;-84
2023/04/10 12:07:30;;;;;;;4.88;2.50;;;;;;;;;;5019940;28;20026;-84
2023/04/10 12:09:56;;;;;;;3.83;2.60;;;;;;;;;;5011021;28;20538;-84
2023/04/10 12:12:34;;;;;;;5.15;2.80;;;;;;;;;;5015241;28;20392;-84
2023/04/10 12:15:00;;;;;;;3.95;2.78;;;;;;;;;;5029259;28;20193;-85
2023/04/10 12:17:27;;;;;;;4.28;2.33;;;;;;;;;;5029187;28;20030;-83
2023/04/10 12:19:53;;;;;;;3.67;2.53;;;;;;;;;;5023479;28;20484;-86
2023/04/10 12:22:19;;;;;;;2.63;2.10;;;;;;;;;;5027787;28;20025;-85
2023/04/10 12:24:47;;;;;;;5.72;2.60;;;;;;;;;;5020909;28;20042;-84
2023/04/10 12:27:21;;;;;;;3.92;2.35;;;;;;;;;;5028082;28;20029;-84
2023/04/10 12:29:48;;;;;;;2.72;2.00;;;;;;;;;;5023347;28;20097;-85
2023/04/10 12:32:15;;;;;;;2.20;2.00;;;;;;;;;;5026479;28;20449;-84
2023/04/10 12:34:41;;;;;;;3.88;2.03;;;;;;;;;;5027715;28;20030;-85
2023/04/10 12:37:08;;;;;;;6.35;2.33;;;;;;;;;;5027300;28;20059;-84
2023/04/10 12:39:34;;;;;;;2.95;1.95;;;;;;;;;;5028029;28;20457;-77
2023/04/10 12:42:18;;;;;;;3.17;1.85;;;;;;;;;;5018903;28;20041;-83
2023/04/10 12:44:51;;;;;;;4.32;1.95;;;;;;;;;;5021216;28;20037;-83
2023/04/10 12:47:17;;;;;;;3.10;2.13;;;;;;;;;;5024040;28;20028;-83
2023/04/10 12:50:03;;;;;;;4.78;1.90;;;;;;;;;;5025305;28;20035;-80
2023/04/10 12:52:29;;;;;;;4.32;2.05;;;;;;;;;;5025902;28;20113;-78
2023/04/10 12:55:07;;;;;;;3.70;1.70;;;;;;;;;;5025390;28;20026;-79
2023/04/10 12:57:35;;;;;;;2.80;1.80;;;;;;;;;;5026671;28;20037;-81
2023/04/10 13:00:02;;;;;;;6.90;1.55;;;;;;;;;;5000217;28;20484;-84
2023/04/10 13:02:28;;;;;;;3.67;2.25;;;;;;;;;;5025881;28;20026;-83
2023/04/10 13:04:55;;;;;;;3.08;1.63;;;;;;;;;;5024799;28;20164;-84
2023/04/10 13:07:26;;;;;;;2.70;2.03;;;;;;;;;;5010958;28;20080;-83
2023/04/10 13:09:52;;;;;;;2.88;1.80;;;;;;;;;;5010902;28;20029;-83
2023/04/10 13:12:18;;;;;;;4.32;2.05;;;;;;;;;;5011035;28;20026;-83
2023/04/10 13:14:45;;;;;;;3.05;2.00;;;;;;;;;;5023837;28;21077;-83
2023/04/10 13:17:11;;;;;;;2.92;2.00;;;;;;;;;;5022631;28;20586;-82
2023/04/10 13:19:37;;;;;;;2.60;1.73;;;;;;;;;;5027099;28;20029;-80
2023/04/10 13:22:03;;;;;;;2.35;1.90;;;;;;;;;;5020178;28;20481;-80
2023/04/10 13:24:30;;;;;;;3.42;2.03;;;;;;;;;;5016471;28;20036;-80
2023/04/10 13:26:57;;;;;;;2.72;1.63;;;;;;;;;;5013898;28;20029;-79
2023/04/10 13:29:23;;;;;;;4.65;2.08;;;;;;;;;;5023491;28;20044;-80
2023/04/10 13:31:49;;;;;;;3.15;1.98;;;;;;;;;;5026006;28;20397;-79
2023/04/10 13:34:15;;;;;;;3.10;1.92;;;;;;;;;;5026800;28;20068;-80
2023/04/10 13:36:41;;;;;;;4.45;2.10;;;;;;;;;;5016473;28;20137;-76
2023/04/10 13:39:07;;;;;;;3.92;1.90;;;;;;;;;;5018505;28;20069;-80
2023/04/10 13:41:33;;;;;;;3.92;2.72;;;;;;;;;;5027533;28;20507;-80
2023/04/10 13:43:59;;;;;;;3.50;2.30;;;;;;;;;;5017542;28;20053;-81
2023/04/10 13:46:25;;;;;;;3.40;2.42;;;;;;;;;;5021348;28;20029;-80
2023/04/10 13:49:03;;;;;;;3.45;2.33;;;;;;;;;;5014165;28;20028;-79
2023/04/10 13:51:29;;;;;;;3.35;2.40;;;;;;;;;;5018914;28;20029;-86
2023/04/10 13:53:55;;;;;;;2.97;1.98;;;;;;;;;;5012616;28;20037;-75
2023/04/10 13:56:21;;;;;;;3.58;2.20;;;;;;;;;;5021696;28;20475;-79
2023/04/10 13:58:48;;;;;;;3.83;2.60;;;;;;;;;;5022174;28;20228;-75
2023/04/10 14:01:14;;;;;;;3.55;2.10;;;;;;;;;;5019461;28;20098;-78
2023/04/10 14:03:40;;;;;;;5.38;2.55;;;;;;;;;;5021160;28;20021;-82
2023/04/10 14:06:06;;;;;;;6.18;2.53;;;;;;;;;;5019684;28;20723;-79
2023/04/10 14:08:32;;;;;;;3.05;2.20;;;;;;;;;;5025846;28;20108;-85
2023/04/10 14:10:58;;;;;;;2.13;1.83;;;;;;;;;;5025461;28;20496;-84
2023/04/10 14:13:25;;;;;;;3.17;1.90;;;;;;;;;;5020979;28;20037;-85
2023/04/10 14:15:52;;;;;;;5.57;2.17;;;;;;;;;;5019032;28;20036;-85
2023/04/10 14:18:18;;;;;;;2.92;2.05;;;;;;;;;;5025220;28;20030;-84
2023/04/10 14:20:44;;;;;;;3.50;2.17;;;;;;;;;;5025991;28;20044;-85
2023/04/10 14:23:16;;;;;;;2.97;2.03;;;;;;;;;;5024176;28;20489;-85
2023/04/10 14:25:45;;;;;;;3.38;2.10;;;;;;;;;;5019060;28;20236;-86
2023/04/10 14:28:17;;;;;;;4.05;2.22;;;;;;;;;;5023594;28;20465;-87
2023/04/10 14:30:44;;;;;;;2.65;2.20;;;;;;;;;;5020027;28;20026;-85
2023/04/10 14:33:10;;;;;;;4.00;2.17;;;;;;;;;;5018360;28;20055;-79
2023/04/10 14:35:36;;;;;;;3.08;2.25;;;;;;;;;;5026214;28;20472;-87
2023/04/10 14:38:01;;;;;;;4.60;2.38;;;;;;;;;;5022131;28;20033;-85
2023/04/10 14:40:27;;;;;;;2.92;2.08;;;;;;;;;;5020852;28;20037;-85
2023/04/10 14:42:53;;;;;;;3.13;2.00;;;;;;;;;;5024945;28;20500;-87